Bridgeboro, Georgia
Current Conditions -  °F | °C
As of 5:01 AM on Wednesday 26 Nov 2014 (Local Time) from KABY Reporting Station
Light Rain Light Rain  
Wind Chill: 44°   Ceiling: 600
Heat Index: 46°   Visibility: 6mi
Dew Point: 46°   Wind: 5mph
Humidity: 100%   Direction: 280°W
Pressure: 30.06"   Gusts: NA
Location:  31.464°N, 83.985°W
Report Text: KABY 261001Z 28004KT 6SM -RA BR BKN006 BKN075 OVC110 08/08 A3006 RMK AO2 RAB01 P0000 $
Loading
Personal Weather Stations






























Interactive Weather Map New forecast layout! Learn more

10-Day Weather Forecast

Advertisements
Track Severe Weather on mobile